createdAt,value
2019-06-20T00:02:19.808Z,17.40
2019-06-20T00:07:28.223Z,17.40
2019-06-20T00:13:21.539Z,17.40
2019-06-20T00:17:51.314Z,17.30
2019-06-20T00:23:51.555Z,17.30
2019-06-20T00:28:21.363Z,17.20
2019-06-20T00:33:41.709Z,17.20
2019-06-20T00:38:34.212Z,17.10
2019-06-20T00:43:45.092Z,17.10
2019-06-20T00:49:06.727Z,17.00
2019-06-20T00:54:22.341Z,17.10
2019-06-20T00:59:21.446Z,17.00
2019-06-20T01:05:15.109Z,17.00
2019-06-20T01:09:40.072Z,17.00
2019-06-20T01:14:50.796Z,17.00
2019-06-20T01:20:03.948Z,16.90
2019-06-20T01:25:14.216Z,16.90
2019-06-20T01:30:27.447Z,16.90
2019-06-20T01:35:41.355Z,16.80
2019-06-20T01:40:55.925Z,16.80
2019-06-20T01:46:02.299Z,16.80
2019-06-20T01:51:08.621Z,16.80
2019-06-20T01:56:19.124Z,16.80
2019-06-20T02:03:02.794Z,16.80
2019-06-20T02:06:37.894Z,16.70
2019-06-20T02:11:47.046Z,16.70
2019-06-20T02:17:00.290Z,16.60
2019-06-20T02:22:18.529Z,16.60
2019-06-20T02:27:16.244Z,16.60
2019-06-20T02:32:28.243Z,16.60
2019-06-20T02:37:37.065Z,16.60
2019-06-20T02:42:46.723Z,16.70
2019-06-20T02:47:53.367Z,16.70
2019-06-20T02:52:59.934Z,16.70
2019-06-20T02:58:31.111Z,16.70
2019-06-20T03:03:48.289Z,16.70
2019-06-20T03:08:46.851Z,16.70
2019-06-20T03:14:06.802Z,16.70
2019-06-20T03:19:14.645Z,16.80
2019-06-20T03:25:10.865Z,16.80
2019-06-20T03:29:47.816Z,16.80
2019-06-20T03:34:43.063Z,16.80
2019-06-20T03:40:10.205Z,16.80
2019-06-20T03:45:23.106Z,16.80
2019-06-20T03:50:37.340Z,16.80
2019-06-20T03:55:43.176Z,16.80
2019-06-20T04:00:55.726Z,16.80
2019-06-20T04:06:02.908Z,16.80
2019-06-20T04:11:18.907Z,16.80
2019-06-20T04:16:25.115Z,16.80
2019-06-20T04:21:38.210Z,16.80
2019-06-20T04:26:52.193Z,16.80
2019-06-20T04:31:59.567Z,16.80
2019-06-20T04:37:04.025Z,16.80
2019-06-20T04:42:08.421Z,16.80
2019-06-20T04:47:14.154Z,16.80
2019-06-20T04:52:18.794Z,16.80
2019-06-20T04:57:23.237Z,16.80
2019-06-20T05:02:47.951Z,16.80
2019-06-20T05:07:52.629Z,16.90
2019-06-20T05:12:58.073Z,16.90
2019-06-20T05:18:03.233Z,16.90
2019-06-20T05:23:07.662Z,16.90
2019-06-20T05:28:12.197Z,17.00
2019-06-20T05:33:16.799Z,17.00
2019-06-20T05:38:21.568Z,17.10
2019-06-20T05:43:25.978Z,17.10
2019-06-20T05:48:30.459Z,17.10
2019-06-20T05:53:34.857Z,17.20
2019-06-20T05:58:39.235Z,17.30
2019-06-20T06:03:43.642Z,17.30
2019-06-20T06:08:48.109Z,17.30
2019-06-20T06:13:53.399Z,17.20
2019-06-20T06:18:57.831Z,17.10
2019-06-20T06:24:02.254Z,17.00
2019-06-20T06:29:06.719Z,17.00
2019-06-20T06:34:11.205Z,17.00
2019-06-20T06:39:15.606Z,17.00
2019-06-20T06:44:20.031Z,17.00
2019-06-20T06:49:24.505Z,17.00
2019-06-20T06:54:28.895Z,17.00
2019-06-20T06:59:33.567Z,17.00
2019-06-20T07:04:37.946Z,17.00
2019-06-20T07:09:42.425Z,17.10
2019-06-20T07:14:46.830Z,17.10
2019-06-20T07:19:51.421Z,17.10
2019-06-20T07:24:55.822Z,17.20
2019-06-20T07:30:00.249Z,17.30
2019-06-20T07:35:07.339Z,17.40
2019-06-20T07:40:13.221Z,17.40
2019-06-20T07:45:18.363Z,17.50
2019-06-20T07:50:22.997Z,17.50
2019-06-20T07:55:27.382Z,17.60
2019-06-20T08:00:32.109Z,17.70
2019-06-20T08:05:36.605Z,17.70
2019-06-20T08:10:41.064Z,17.70
2019-06-20T08:15:45.495Z,17.70
2019-06-20T08:20:50.033Z,17.70
2019-06-20T08:25:55.740Z,17.80
2019-06-20T08:31:00.580Z,17.90
2019-06-20T08:36:06.640Z,18.00
2019-06-20T08:41:11.359Z,18.20
2019-06-20T08:46:15.762Z,18.30
2019-06-20T08:51:20.273Z,18.30
2019-06-20T08:56:24.677Z,18.30
2019-06-20T09:01:29.782Z,18.30
2019-06-20T09:06:34.461Z,18.50
2019-06-20T09:11:38.962Z,18.50
2019-06-20T09:16:43.349Z,18.50
2019-06-20T09:21:47.746Z,18.50
2019-06-20T09:26:52.756Z,18.40
2019-06-20T09:31:58.617Z,18.50
2019-06-20T09:37:04.022Z,18.60
2019-06-20T09:42:08.571Z,18.70
2019-06-20T09:47:16.946Z,18.80
2019-06-20T09:52:21.382Z,19.00
2019-06-20T09:57:25.778Z,19.20
2019-06-20T10:02:30.210Z,19.10
2019-06-20T10:07:34.599Z,19.10
2019-06-20T10:12:39.195Z,19.40
2019-06-20T10:17:43.646Z,19.70
2019-06-20T10:22:48.504Z,20.10
2019-06-20T10:27:53.734Z,20.10
2019-06-20T10:32:58.200Z,20.20
2019-06-20T10:38:02.622Z,20.40
2019-06-20T10:43:07.171Z,20.40
2019-06-20T10:48:11.609Z,20.50
2019-06-20T10:53:16.004Z,20.60
2019-06-20T10:58:20.415Z,20.80
2019-06-20T11:03:24.813Z,21.20
2019-06-20T11:08:29.194Z,21.40
2019-06-20T11:13:33.712Z,21.30
2019-06-20T11:18:38.813Z,21.30
2019-06-20T11:23:45.252Z,21.40
2019-06-20T11:28:49.782Z,21.80
2019-06-20T11:33:54.153Z,22.10
2019-06-20T11:38:58.520Z,22.20
2019-06-20T11:44:02.926Z,22.30
2019-06-20T11:49:07.397Z,22.50
2019-06-20T11:54:11.816Z,22.50
2019-06-20T11:59:16.210Z,22.40
2019-06-20T12:04:20.647Z,22.80
2019-06-20T12:09:25.033Z,23.00
2019-06-20T12:14:29.401Z,22.70
2019-06-20T12:19:33.841Z,22.50
2019-06-20T12:24:39.664Z,22.30
2019-06-20T12:29:44.428Z,22.20
2019-06-20T12:34:50.039Z,22.30
2019-06-20T12:39:54.457Z,22.40
2019-06-20T12:44:58.826Z,22.40
2019-06-20T12:50:04.383Z,22.40
2019-06-20T12:55:15.921Z,23.10
2019-06-20T13:00:21.729Z,23.40
2019-06-20T13:05:26.677Z,23.50
2019-06-20T13:10:31.134Z,23.60
2019-06-20T13:15:35.542Z,23.40
2019-06-20T13:20:40.640Z,23.50
2019-06-20T13:25:46.744Z,23.40
2019-06-20T13:30:52.247Z,23.60
2019-06-20T13:35:56.645Z,24.10
2019-06-20T13:41:01.024Z,24.70
2019-06-20T13:46:05.558Z,25.10
2019-06-20T13:51:10.073Z,24.50
2019-06-20T13:56:14.470Z,23.80
2019-06-20T14:01:18.919Z,23.80
2019-06-20T14:06:23.273Z,23.80
2019-06-20T14:11:27.650Z,24.20
2019-06-20T14:16:32.034Z,24.60
2019-06-20T14:21:36.421Z,25.10
2019-06-20T14:26:43.438Z,25.40
2019-06-20T14:31:47.269Z,25.20
2019-06-20T14:36:52.208Z,25.30
2019-06-20T14:42:17.136Z,24.80
2019-06-20T14:47:21.545Z,24.50
2019-06-20T14:52:25.941Z,24.40
2019-06-20T14:57:30.343Z,24.40
2019-06-20T15:02:38.818Z,24.20
2019-06-20T15:07:40.935Z,23.90
2019-06-20T15:12:46.414Z,23.80
2019-06-20T15:17:53.595Z,23.60
2019-06-20T15:22:57.654Z,23.30
2019-06-20T15:28:02.059Z,23.10
2019-06-20T15:33:10.308Z,22.70
2019-06-20T15:38:12.603Z,22.20
2019-06-20T15:43:16.972Z,21.90
2019-06-20T15:48:21.388Z,21.70
2019-06-20T15:53:25.778Z,21.50
2019-06-20T15:58:30.214Z,21.60
2019-06-20T16:03:34.670Z,21.60
2019-06-20T16:08:39.141Z,21.60
2019-06-20T16:13:43.542Z,21.50
2019-06-20T16:18:48.050Z,21.50
2019-06-20T16:23:52.417Z,21.70
2019-06-20T16:28:56.815Z,21.70
2019-06-20T16:34:02.318Z,21.60
2019-06-20T16:39:09.213Z,21.50
2019-06-20T16:44:13.661Z,21.60
2019-06-20T16:49:18.111Z,21.50
2019-06-20T16:54:22.597Z,21.40
2019-06-20T16:59:26.975Z,21.30
2019-06-20T17:04:31.389Z,21.20
2019-06-20T17:09:35.813Z,20.90
2019-06-20T17:14:40.316Z,20.80
2019-06-20T17:19:44.707Z,20.80
2019-06-20T17:24:49.124Z,20.80
2019-06-20T17:29:53.511Z,20.70
2019-06-20T17:34:57.933Z,20.60
2019-06-20T17:40:02.357Z,20.60
2019-06-20T17:45:10.958Z,20.60
2019-06-20T17:50:15.924Z,20.60
2019-06-20T17:55:20.528Z,20.50
2019-06-20T18:00:27.091Z,20.40
2019-06-20T18:05:31.496Z,20.40
2019-06-20T18:10:35.935Z,20.40
2019-06-20T18:15:40.327Z,20.30
2019-06-20T18:20:44.749Z,20.20
2019-06-20T18:25:49.101Z,20.30
2019-06-20T18:30:53.587Z,20.40
2019-06-20T18:35:58.236Z,20.10
2019-06-20T18:41:02.704Z,19.90
2019-06-20T18:46:07.319Z,19.80
2019-06-20T18:51:11.748Z,19.70
2019-06-20T18:56:16.201Z,19.50
2019-06-20T19:01:20.836Z,19.30
2019-06-20T19:06:35.583Z,19.20
2019-06-20T19:11:34.290Z,19.10
2019-06-20T19:16:38.828Z,19.00
2019-06-20T19:21:43.240Z,18.90
2019-06-20T19:26:47.899Z,18.80
2019-06-20T19:31:52.401Z,18.70
2019-06-20T19:36:56.774Z,18.60
2019-06-20T19:42:01.147Z,18.50
2019-06-20T19:47:05.622Z,18.40
2019-06-20T19:52:10.095Z,18.30
2019-06-20T19:57:14.873Z,18.20
2019-06-20T20:02:19.616Z,18.10
2019-06-20T20:07:24.105Z,18.00
2019-06-20T20:12:28.671Z,17.90
2019-06-20T20:17:33.068Z,17.80
2019-06-20T20:22:37.466Z,17.70
2019-06-20T20:33:49.375Z,17.60
2019-06-20T21:07:48.186Z,17.20
2019-06-20T21:36:48.807Z,16.70
2019-06-20T22:09:28.746Z,16.40
2019-06-20T22:54:52.222Z,16.00
2019-06-20T23:17:23.830Z,15.80
2019-06-20T23:19:10.274Z,15.90
2019-06-20T23:45:02.456Z,15.50
